sensor_id;sensor_type;location;lat;lon;timestamp;P1;durP1;ratioP1;P2;durP2;ratioP2
9821;SDS011;4950;46.042;14.472;2023-07-13T00:02:21;10.38;;;6.13;;
9821;SDS011;4950;46.042;14.472;2023-07-13T00:04:48;16.95;;;5.93;;
9821;SDS011;4950;46.042;14.472;2023-07-13T00:07:15;12.50;;;5.90;;
9821;SDS011;4950;46.042;14.472;2023-07-13T00:09:45;9.43;;;6.03;;
9821;SDS011;4950;46.042;14.472;2023-07-13T00:12:21;14.88;;;6.25;;
9821;SDS011;4950;46.042;14.472;2023-07-13T00:17:18;15.40;;;6.00;;
9821;SDS011;4950;46.042;14.472;2023-07-13T00:19:45;12.75;;;5.95;;
9821;SDS011;4950;46.042;14.472;2023-07-13T00:22:11;13.05;;;5.93;;
9821;SDS011;4950;46.042;14.472;2023-07-13T00:24:38;15.27;;;6.70;;
9821;SDS011;4950;46.042;14.472;2023-07-13T00:27:06;10.63;;;6.13;;
9821;SDS011;4950;46.042;14.472;2023-07-13T00:29:33;16.27;;;6.93;;
9821;SDS011;4950;46.042;14.472;2023-07-13T00:32:01;13.23;;;6.38;;
9821;SDS011;4950;46.042;14.472;2023-07-13T00:34:30;12.00;;;6.47;;
9821;SDS011;4950;46.042;14.472;2023-07-13T00:36:57;12.88;;;6.10;;
9821;SDS011;4950;46.042;14.472;2023-07-13T00:39:24;13.55;;;6.25;;
9821;SDS011;4950;46.042;14.472;2023-07-13T00:41:51;16.88;;;7.25;;
9821;SDS011;4950;46.042;14.472;2023-07-13T00:44:18;17.00;;;6.80;;
9821;SDS011;4950;46.042;14.472;2023-07-13T00:46:46;15.68;;;6.57;;
9821;SDS011;4950;46.042;14.472;2023-07-13T00:49:13;16.05;;;7.03;;
9821;SDS011;4950;46.042;14.472;2023-07-13T00:51:44;11.13;;;5.82;;
9821;SDS011;4950;46.042;14.472;2023-07-13T00:54:15;12.18;;;6.00;;
9821;SDS011;4950;46.042;14.472;2023-07-13T00:56:45;13.38;;;5.68;;
9821;SDS011;4950;46.042;14.472;2023-07-13T00:59:15;13.55;;;6.15;;
9821;SDS011;4950;46.042;14.472;2023-07-13T01:01:44;12.70;;;6.43;;
9821;SDS011;4950;46.042;14.472;2023-07-13T01:04:11;11.73;;;5.57;;
9821;SDS011;4950;46.042;14.472;2023-07-13T01:06:38;13.60;;;5.05;;
9821;SDS011;4950;46.042;14.472;2023-07-13T01:09:10;9.85;;;5.22;;
9821;SDS011;4950;46.042;14.472;2023-07-13T01:11:38;12.93;;;4.95;;
9821;SDS011;4950;46.042;14.472;2023-07-13T01:14:06;10.80;;;5.17;;
9821;SDS011;4950;46.042;14.472;2023-07-13T01:16:34;14.30;;;4.40;;
9821;SDS011;4950;46.042;14.472;2023-07-13T01:19:03;9.32;;;3.15;;
9821;SDS011;4950;46.042;14.472;2023-07-13T01:21:39;10.10;;;3.20;;
9821;SDS011;4950;46.042;14.472;2023-07-13T01:24:08;11.95;;;3.15;;
9821;SDS011;4950;46.042;14.472;2023-07-13T01:26:34;12.40;;;3.13;;
9821;SDS011;4950;46.042;14.472;2023-07-13T01:29:01;9.55;;;2.58;;
9821;SDS011;4950;46.042;14.472;2023-07-13T01:31:28;15.02;;;3.25;;
9821;SDS011;4950;46.042;14.472;2023-07-13T01:33:54;14.00;;;2.85;;
9821;SDS011;4950;46.042;14.472;2023-07-13T01:36:22;8.55;;;3.60;;
9821;SDS011;4950;46.042;14.472;2023-07-13T01:38:50;14.85;;;3.72;;
9821;SDS011;4950;46.042;14.472;2023-07-13T01:41:17;10.38;;;3.83;;
9821;SDS011;4950;46.042;14.472;2023-07-13T01:43:44;7.25;;;2.38;;
9821;SDS011;4950;46.042;14.472;2023-07-13T01:46:10;8.27;;;2.92;;
9821;SDS011;4950;46.042;14.472;2023-07-13T01:48:37;12.00;;;2.67;;
9821;SDS011;4950;46.042;14.472;2023-07-13T01:51:04;8.65;;;2.75;;
9821;SDS011;4950;46.042;14.472;2023-07-13T01:53:30;7.90;;;2.80;;
9821;SDS011;4950;46.042;14.472;2023-07-13T01:55:58;9.80;;;2.88;;
9821;SDS011;4950;46.042;14.472;2023-07-13T01:58:25;8.65;;;2.63;;
9821;SDS011;4950;46.042;14.472;2023-07-13T02:00:52;6.70;;;2.50;;
9821;SDS011;4950;46.042;14.472;2023-07-13T02:03:18;5.25;;;2.20;;
9821;SDS011;4950;46.042;14.472;2023-07-13T02:05:45;6.82;;;2.70;;
9821;SDS011;4950;46.042;14.472;2023-07-13T02:08:11;4.20;;;2.08;;
9821;SDS011;4950;46.042;14.472;2023-07-13T02:10:38;7.55;;;2.17;;
9821;SDS011;4950;46.042;14.472;2023-07-13T02:13:07;4.57;;;1.75;;
9821;SDS011;4950;46.042;14.472;2023-07-13T02:15:34;5.15;;;1.92;;
9821;SDS011;4950;46.042;14.472;2023-07-13T02:18:04;6.93;;;2.58;;
9821;SDS011;4950;46.042;14.472;2023-07-13T02:20:30;5.18;;;1.70;;
9821;SDS011;4950;46.042;14.472;2023-07-13T02:22:57;4.57;;;1.60;;
9821;SDS011;4950;46.042;14.472;2023-07-13T02:25:24;6.00;;;2.15;;
9821;SDS011;4950;46.042;14.472;2023-07-13T02:27:51;5.97;;;1.83;;
9821;SDS011;4950;46.042;14.472;2023-07-13T02:30:20;4.80;;;2.00;;
9821;SDS011;4950;46.042;14.472;2023-07-13T02:32:49;6.72;;;1.60;;
9821;SDS011;4950;46.042;14.472;2023-07-13T02:35:16;11.20;;;2.78;;
9821;SDS011;4950;46.042;14.472;2023-07-13T02:37:43;8.60;;;2.97;;
9821;SDS011;4950;46.042;14.472;2023-07-13T02:40:09;8.43;;;2.92;;
9821;SDS011;4950;46.042;14.472;2023-07-13T02:42:36;8.40;;;3.15;;
9821;SDS011;4950;46.042;14.472;2023-07-13T02:45:03;8.82;;;3.25;;
9821;SDS011;4950;46.042;14.472;2023-07-13T02:47:33;8.75;;;2.60;;
9821;SDS011;4950;46.042;14.472;2023-07-13T02:49:59;8.85;;;2.97;;
9821;SDS011;4950;46.042;14.472;2023-07-13T02:52:26;9.10;;;3.05;;
9821;SDS011;4950;46.042;14.472;2023-07-13T02:54:53;8.10;;;3.13;;
9821;SDS011;4950;46.042;14.472;2023-07-13T02:57:19;9.18;;;3.00;;
9821;SDS011;4950;46.042;14.472;2023-07-13T02:59:46;10.20;;;2.72;;
9821;SDS011;4950;46.042;14.472;2023-07-13T03:02:13;11.25;;;2.92;;
9821;SDS011;4950;46.042;14.472;2023-07-13T03:04:41;7.13;;;3.15;;
9821;SDS011;4950;46.042;14.472;2023-07-13T03:07:08;9.10;;;2.80;;
9821;SDS011;4950;46.042;14.472;2023-07-13T03:09:35;6.97;;;2.60;;
9821;SDS011;4950;46.042;14.472;2023-07-13T03:12:02;6.55;;;2.75;;
9821;SDS011;4950;46.042;14.472;2023-07-13T03:14:29;7.00;;;2.78;;
9821;SDS011;4950;46.042;14.472;2023-07-13T03:16:56;6.05;;;3.03;;
9821;SDS011;4950;46.042;14.472;2023-07-13T03:19:22;7.75;;;2.70;;
9821;SDS011;4950;46.042;14.472;2023-07-13T03:21:51;8.07;;;3.15;;
9821;SDS011;4950;46.042;14.472;2023-07-13T03:26:45;7.50;;;2.88;;
9821;SDS011;4950;46.042;14.472;2023-07-13T03:29:12;9.10;;;2.28;;
9821;SDS011;4950;46.042;14.472;2023-07-13T03:31:39;10.07;;;2.50;;
9821;SDS011;4950;46.042;14.472;2023-07-13T03:34:06;7.47;;;2.70;;
9821;SDS011;4950;46.042;14.472;2023-07-13T03:36:33;7.07;;;2.80;;
9821;SDS011;4950;46.042;14.472;2023-07-13T03:39:01;10.23;;;2.85;;
9821;SDS011;4950;46.042;14.472;2023-07-13T03:41:29;9.50;;;3.03;;
9821;SDS011;4950;46.042;14.472;2023-07-13T03:43:56;9.23;;;3.20;;
9821;SDS011;4950;46.042;14.472;2023-07-13T03:46:23;5.95;;;2.78;;
9821;SDS011;4950;46.042;14.472;2023-07-13T03:48:50;7.07;;;2.60;;
9821;SDS011;4950;46.042;14.472;2023-07-13T03:51:17;8.23;;;2.60;;
9821;SDS011;4950;46.042;14.472;2023-07-13T03:53:44;11.50;;;2.65;;
9821;SDS011;4950;46.042;14.472;2023-07-13T03:56:14;7.68;;;2.92;;
9821;SDS011;4950;46.042;14.472;2023-07-13T03:58:43;5.82;;;2.80;;
9821;SDS011;4950;46.042;14.472;2023-07-13T04:01:12;6.82;;;2.88;;
9821;SDS011;4950;46.042;14.472;2023-07-13T04:03:39;11.93;;;3.07;;
9821;SDS011;4950;46.042;14.472;2023-07-13T04:06:07;7.25;;;3.00;;
9821;SDS011;4950;46.042;14.472;2023-07-13T04:08:40;8.55;;;2.95;;
9821;SDS011;4950;46.042;14.472;2023-07-13T04:11:07;7.75;;;2.67;;
9821;SDS011;4950;46.042;14.472;2023-07-13T04:13:35;7.28;;;2.38;;
9821;SDS011;4950;46.042;14.472;2023-07-13T04:16:01;7.20;;;3.23;;
9821;SDS011;4950;46.042;14.472;2023-07-13T04:18:28;6.45;;;2.53;;
9821;SDS011;4950;46.042;14.472;2023-07-13T04:20:55;6.90;;;2.35;;
9821;SDS011;4950;46.042;14.472;2023-07-13T04:23:22;6.15;;;2.30;;
9821;SDS011;4950;46.042;14.472;2023-07-13T04:25:49;6.35;;;2.78;;
9821;SDS011;4950;46.042;14.472;2023-07-13T04:28:19;10.38;;;3.28;;
9821;SDS011;4950;46.042;14.472;2023-07-13T04:30:47;7.45;;;2.42;;
9821;SDS011;4950;46.042;14.472;2023-07-13T04:33:14;6.67;;;2.47;;
9821;SDS011;4950;46.042;14.472;2023-07-13T04:35:41;6.30;;;2.70;;
9821;SDS011;4950;46.042;14.472;2023-07-13T04:38:08;7.03;;;2.85;;
9821;SDS011;4950;46.042;14.472;2023-07-13T04:40:38;6.50;;;2.40;;
9821;SDS011;4950;46.042;14.472;2023-07-13T04:43:05;7.43;;;2.90;;
9821;SDS011;4950;46.042;14.472;2023-07-13T04:45:31;9.32;;;3.60;;
9821;SDS011;4950;46.042;14.472;2023-07-13T04:47:59;9.15;;;2.90;;
9821;SDS011;4950;46.042;14.472;2023-07-13T04:50:26;8.15;;;2.55;;
9821;SDS011;4950;46.042;14.472;2023-07-13T04:52:53;7.30;;;2.72;;
9821;SDS011;4950;46.042;14.472;2023-07-13T04:55:20;11.27;;;2.83;;
9821;SDS011;4950;46.042;14.472;2023-07-13T04:57:47;6.68;;;2.85;;
9821;SDS011;4950;46.042;14.472;2023-07-13T05:00:14;9.23;;;2.60;;
9821;SDS011;4950;46.042;14.472;2023-07-13T05:02:43;4.97;;;2.50;;
9821;SDS011;4950;46.042;14.472;2023-07-13T05:05:12;6.53;;;2.65;;
9821;SDS011;4950;46.042;14.472;2023-07-13T05:07:39;5.70;;;2.55;;
9821;SDS011;4950;46.042;14.472;2023-07-13T05:10:06;6.93;;;2.63;;
9821;SDS011;4950;46.042;14.472;2023-07-13T05:12:35;6.40;;;3.00;;
9821;SDS011;4950;46.042;14.472;2023-07-13T05:15:02;7.05;;;2.58;;
9821;SDS011;4950;46.042;14.472;2023-07-13T05:17:29;6.00;;;2.50;;
9821;SDS011;4950;46.042;14.472;2023-07-13T05:19:56;7.70;;;2.35;;
9821;SDS011;4950;46.042;14.472;2023-07-13T05:22:24;8.23;;;3.45;;
9821;SDS011;4950;46.042;14.472;2023-07-13T05:24:51;6.60;;;2.95;;
9821;SDS011;4950;46.042;14.472;2023-07-13T05:27:17;6.00;;;3.13;;
9821;SDS011;4950;46.042;14.472;2023-07-13T05:29:44;7.85;;;2.90;;
9821;SDS011;4950;46.042;14.472;2023-07-13T05:32:11;8.48;;;3.22;;
9821;SDS011;4950;46.042;14.472;2023-07-13T05:34:37;4.40;;;2.22;;
9821;SDS011;4950;46.042;14.472;2023-07-13T05:37:04;7.43;;;2.70;;
9821;SDS011;4950;46.042;14.472;2023-07-13T05:39:32;7.03;;;2.47;;
9821;SDS011;4950;46.042;14.472;2023-07-13T05:41:59;5.73;;;2.80;;
9821;SDS011;4950;46.042;14.472;2023-07-13T05:44:25;7.63;;;2.53;;
9821;SDS011;4950;46.042;14.472;2023-07-13T05:46:52;5.95;;;3.05;;
9821;SDS011;4950;46.042;14.472;2023-07-13T05:49:20;8.77;;;3.17;;
9821;SDS011;4950;46.042;14.472;2023-07-13T05:51:46;9.55;;;3.28;;
9821;SDS011;4950;46.042;14.472;2023-07-13T05:54:13;8.77;;;3.38;;
9821;SDS011;4950;46.042;14.472;2023-07-13T05:56:41;11.90;;;3.05;;
9821;SDS011;4950;46.042;14.472;2023-07-13T05:59:08;6.35;;;2.90;;
9821;SDS011;4950;46.042;14.472;2023-07-13T06:01:34;6.65;;;3.17;;
9821;SDS011;4950;46.042;14.472;2023-07-13T06:04:01;7.20;;;2.80;;
9821;SDS011;4950;46.042;14.472;2023-07-13T06:06:28;8.25;;;3.25;;
9821;SDS011;4950;46.042;14.472;2023-07-13T06:08:55;9.38;;;3.58;;
9821;SDS011;4950;46.042;14.472;2023-07-13T06:11:22;6.15;;;2.85;;
9821;SDS011;4950;46.042;14.472;2023-07-13T06:16:19;7.28;;;3.10;;
9821;SDS011;4950;46.042;14.472;2023-07-13T06:18:46;12.98;;;4.28;;
9821;SDS011;4950;46.042;14.472;2023-07-13T06:21:13;7.03;;;3.30;;
9821;SDS011;4950;46.042;14.472;2023-07-13T06:23:42;6.78;;;2.90;;
9821;SDS011;4950;46.042;14.472;2023-07-13T06:26:10;8.93;;;3.58;;
9821;SDS011;4950;46.042;14.472;2023-07-13T06:28:37;6.15;;;3.20;;
9821;SDS011;4950;46.042;14.472;2023-07-13T06:31:06;7.80;;;3.03;;
9821;SDS011;4950;46.042;14.472;2023-07-13T06:33:34;9.27;;;3.08;;
9821;SDS011;4950;46.042;14.472;2023-07-13T06:36:02;8.75;;;2.97;;
9821;SDS011;4950;46.042;14.472;2023-07-13T06:38:29;5.30;;;2.88;;
9821;SDS011;4950;46.042;14.472;2023-07-13T06:40:56;6.50;;;2.95;;
9821;SDS011;4950;46.042;14.472;2023-07-13T06:43:23;8.30;;;3.22;;
9821;SDS011;4950;46.042;14.472;2023-07-13T06:45:51;11.57;;;3.50;;
9821;SDS011;4950;46.042;14.472;2023-07-13T06:48:19;10.20;;;4.07;;
9821;SDS011;4950;46.042;14.472;2023-07-13T06:50:46;7.47;;;3.37;;
9821;SDS011;4950;46.042;14.472;2023-07-13T06:53:14;11.27;;;3.60;;
9821;SDS011;4950;46.042;14.472;2023-07-13T06:55:43;9.68;;;4.05;;
9821;SDS011;4950;46.042;14.472;2023-07-13T07:00:36;9.35;;;3.53;;
9821;SDS011;4950;46.042;14.472;2023-07-13T07:03:05;9.60;;;4.07;;
9821;SDS011;4950;46.042;14.472;2023-07-13T07:05:33;7.40;;;3.42;;
9821;SDS011;4950;46.042;14.472;2023-07-13T07:07:59;6.78;;;3.75;;
9821;SDS011;4950;46.042;14.472;2023-07-13T07:10:28;9.60;;;4.82;;
9821;SDS011;4950;46.042;14.472;2023-07-13T07:12:56;9.63;;;3.50;;
9821;SDS011;4950;46.042;14.472;2023-07-13T07:15:23;8.48;;;3.70;;
9821;SDS011;4950;46.042;14.472;2023-07-13T07:17:49;7.20;;;3.13;;
9821;SDS011;4950;46.042;14.472;2023-07-13T07:20:16;7.82;;;3.35;;
9821;SDS011;4950;46.042;14.472;2023-07-13T07:22:44;9.05;;;3.75;;
9821;SDS011;4950;46.042;14.472;2023-07-13T07:25:11;8.07;;;3.15;;
9821;SDS011;4950;46.042;14.472;2023-07-13T07:27:37;10.93;;;3.85;;
9821;SDS011;4950;46.042;14.472;2023-07-13T07:30:05;7.65;;;3.35;;
9821;SDS011;4950;46.042;14.472;2023-07-13T07:32:32;11.80;;;3.50;;
9821;SDS011;4950;46.042;14.472;2023-07-13T07:34:59;7.97;;;3.30;;
9821;SDS011;4950;46.042;14.472;2023-07-13T07:37:25;11.20;;;4.53;;
9821;SDS011;4950;46.042;14.472;2023-07-13T07:39:53;6.10;;;3.10;;
9821;SDS011;4950;46.042;14.472;2023-07-13T07:42:20;9.67;;;3.70;;
9821;SDS011;4950;46.042;14.472;2023-07-13T07:44:47;6.97;;;3.70;;
9821;SDS011;4950;46.042;14.472;2023-07-13T07:47:13;6.03;;;2.80;;
9821;SDS011;4950;46.042;14.472;2023-07-13T07:49:40;7.13;;;3.08;;
9821;SDS011;4950;46.042;14.472;2023-07-13T07:52:07;5.60;;;2.80;;
9821;SDS011;4950;46.042;14.472;2023-07-13T07:54:34;10.70;;;3.47;;
9821;SDS011;4950;46.042;14.472;2023-07-13T07:57:02;9.05;;;3.72;;
9821;SDS011;4950;46.042;14.472;2023-07-13T07:59:29;11.18;;;3.40;;
9821;SDS011;4950;46.042;14.472;2023-07-13T08:01:55;11.10;;;3.63;;
9821;SDS011;4950;46.042;14.472;2023-07-13T08:04:22;8.13;;;3.10;;
9821;SDS011;4950;46.042;14.472;2023-07-13T08:06:48;8.02;;;3.30;;
9821;SDS011;4950;46.042;14.472;2023-07-13T08:09:15;6.80;;;2.88;;
9821;SDS011;4950;46.042;14.472;2023-07-13T08:11:42;6.15;;;2.90;;
9821;SDS011;4950;46.042;14.472;2023-07-13T08:14:10;11.35;;;3.38;;
9821;SDS011;4950;46.042;14.472;2023-07-13T08:16:36;9.50;;;3.42;;
9821;SDS011;4950;46.042;14.472;2023-07-13T08:19:03;9.85;;;3.10;;
9821;SDS011;4950;46.042;14.472;2023-07-13T08:21:31;8.88;;;3.60;;
9821;SDS011;4950;46.042;14.472;2023-07-13T08:23:57;10.45;;;3.00;;
9821;SDS011;4950;46.042;14.472;2023-07-13T08:26:24;8.23;;;3.58;;
9821;SDS011;4950;46.042;14.472;2023-07-13T08:28:51;7.22;;;3.13;;
9821;SDS011;4950;46.042;14.472;2023-07-13T08:31:19;7.47;;;3.13;;
9821;SDS011;4950;46.042;14.472;2023-07-13T08:33:45;6.60;;;3.13;;
9821;SDS011;4950;46.042;14.472;2023-07-13T08:36:12;8.05;;;2.70;;
9821;SDS011;4950;46.042;14.472;2023-07-13T08:38:39;5.97;;;2.85;;
9821;SDS011;4950;46.042;14.472;2023-07-13T08:41:10;6.65;;;2.90;;
9821;SDS011;4950;46.042;14.472;2023-07-13T08:43:39;9.70;;;3.28;;
9821;SDS011;4950;46.042;14.472;2023-07-13T08:46:08;5.57;;;2.40;;
9821;SDS011;4950;46.042;14.472;2023-07-13T08:48:41;3.67;;;2.30;;
9821;SDS011;4950;46.042;14.472;2023-07-13T08:51:12;5.57;;;2.75;;
9821;SDS011;4950;46.042;14.472;2023-07-13T08:53:51;12.68;;;3.22;;
9821;SDS011;4950;46.042;14.472;2023-07-13T08:56:21;11.40;;;4.20;;
9821;SDS011;4950;46.042;14.472;2023-07-13T08:58:51;8.85;;;3.60;;
9821;SDS011;4950;46.042;14.472;2023-07-13T09:01:22;10.98;;;3.75;;
9821;SDS011;4950;46.042;14.472;2023-07-13T09:03:58;11.07;;;4.10;;
9821;SDS011;4950;46.042;14.472;2023-07-13T09:06:31;16.92;;;4.50;;
9821;SDS011;4950;46.042;14.472;2023-07-13T09:09:05;6.35;;;3.42;;
9821;SDS011;4950;46.042;14.472;2023-07-13T09:11:41;15.68;;;3.67;;
9821;SDS011;4950;46.042;14.472;2023-07-13T09:14:24;7.35;;;3.20;;
9821;SDS011;4950;46.042;14.472;2023-07-13T09:17:05;6.53;;;3.20;;
9821;SDS011;4950;46.042;14.472;2023-07-13T09:19:38;7.53;;;3.10;;
9821;SDS011;4950;46.042;14.472;2023-07-13T09:22:10;8.00;;;2.90;;
9821;SDS011;4950;46.042;14.472;2023-07-13T09:24:47;10.32;;;3.10;;
9821;SDS011;4950;46.042;14.472;2023-07-13T09:27:21;8.75;;;3.60;;
9821;SDS011;4950;46.042;14.472;2023-07-13T09:29:50;7.55;;;2.90;;
9821;SDS011;4950;46.042;14.472;2023-07-13T09:32:23;9.50;;;3.30;;
9821;SDS011;4950;46.042;14.472;2023-07-13T09:34:54;12.68;;;3.92;;
9821;SDS011;4950;46.042;14.472;2023-07-13T09:37:21;9.00;;;2.92;;
9821;SDS011;4950;46.042;14.472;2023-07-13T09:39:53;8.18;;;3.13;;
9821;SDS011;4950;46.042;14.472;2023-07-13T09:42:22;9.68;;;3.45;;
9821;SDS011;4950;46.042;14.472;2023-07-13T09:44:53;7.05;;;3.45;;
9821;SDS011;4950;46.042;14.472;2023-07-13T09:47:22;6.57;;;2.88;;
9821;SDS011;4950;46.042;14.472;2023-07-13T09:49:57;6.82;;;3.20;;
9821;SDS011;4950;46.042;14.472;2023-07-13T09:52:25;6.47;;;2.80;;
9821;SDS011;4950;46.042;14.472;2023-07-13T09:54:53;5.47;;;3.10;;
9821;SDS011;4950;46.042;14.472;2023-07-13T09:57:24;9.88;;;3.15;;
9821;SDS011;4950;46.042;14.472;2023-07-13T09:59:53;6.93;;;3.00;;
9821;SDS011;4950;46.042;14.472;2023-07-13T10:02:25;10.52;;;4.25;;
9821;SDS011;4950;46.042;14.472;2023-07-13T10:04:58;8.13;;;3.10;;
9821;SDS011;4950;46.042;14.472;2023-07-13T10:07:26;8.57;;;2.88;;
9821;SDS011;4950;46.042;14.472;2023-07-13T10:09:53;10.35;;;3.28;;
9821;SDS011;4950;46.042;14.472;2023-07-13T10:12:20;13.60;;;4.10;;
9821;SDS011;4950;46.042;14.472;2023-07-13T10:14:50;6.78;;;2.83;;
9821;SDS011;4950;46.042;14.472;2023-07-13T10:17:24;7.53;;;2.80;;
9821;SDS011;4950;46.042;14.472;2023-07-13T10:19:56;12.48;;;3.75;;
9821;SDS011;4950;46.042;14.472;2023-07-13T10:22:29;8.65;;;3.25;;
9821;SDS011;4950;46.042;14.472;2023-07-13T10:25:07;10.13;;;3.45;;
9821;SDS011;4950;46.042;14.472;2023-07-13T10:27:43;8.60;;;3.13;;
9821;SDS011;4950;46.042;14.472;2023-07-13T10:30:12;8.77;;;2.60;;
9821;SDS011;4950;46.042;14.472;2023-07-13T10:32:43;9.70;;;3.38;;
9821;SDS011;4950;46.042;14.472;2023-07-13T10:35:13;10.05;;;3.28;;
9821;SDS011;4950;46.042;14.472;2023-07-13T10:37:44;8.63;;;3.50;;
9821;SDS011;4950;46.042;14.472;2023-07-13T10:40:16;8.25;;;3.00;;
9821;SDS011;4950;46.042;14.472;2023-07-13T10:42:48;9.38;;;3.72;;
9821;SDS011;4950;46.042;14.472;2023-07-13T10:45:18;10.40;;;3.53;;
9821;SDS011;4950;46.042;14.472;2023-07-13T10:47:47;10.85;;;3.47;;
9821;SDS011;4950;46.042;14.472;2023-07-13T10:50:20;9.70;;;4.18;;
9821;SDS011;4950;46.042;14.472;2023-07-13T10:52:50;7.35;;;3.50;;
9821;SDS011;4950;46.042;14.472;2023-07-13T10:55:32;7.55;;;3.33;;
9821;SDS011;4950;46.042;14.472;2023-07-13T10:58:01;10.75;;;3.33;;
9821;SDS011;4950;46.042;14.472;2023-07-13T11:00:32;6.75;;;3.58;;
9821;SDS011;4950;46.042;14.472;2023-07-13T11:03:10;9.48;;;4.00;;
9821;SDS011;4950;46.042;14.472;2023-07-13T11:05:42;8.30;;;3.40;;
9821;SDS011;4950;46.042;14.472;2023-07-13T11:08:13;7.68;;;3.55;;
9821;SDS011;4950;46.042;14.472;2023-07-13T11:10:46;10.20;;;3.40;;
9821;SDS011;4950;46.042;14.472;2023-07-13T11:16:26;14.27;;;4.25;;
9821;SDS011;4950;46.042;14.472;2023-07-13T11:28:05;11.60;;;4.60;;
9821;SDS011;4950;46.042;14.472;2023-07-13T11:30:39;10.68;;;4.43;;
9821;SDS011;4950;46.042;14.472;2023-07-13T11:33:10;13.05;;;4.70;;
9821;SDS011;4950;46.042;14.472;2023-07-13T11:35:42;10.55;;;4.90;;
9821;SDS011;4950;46.042;14.472;2023-07-13T11:38:15;11.00;;;4.80;;
9821;SDS011;4950;46.042;14.472;2023-07-13T11:40:44;14.48;;;5.38;;
9821;SDS011;4950;46.042;14.472;2023-07-13T11:43:12;17.25;;;5.97;;
9821;SDS011;4950;46.042;14.472;2023-07-13T11:45:41;16.65;;;5.95;;
9821;SDS011;4950;46.042;14.472;2023-07-13T11:48:18;12.38;;;5.13;;
9821;SDS011;4950;46.042;14.472;2023-07-13T11:50:49;11.90;;;5.82;;
9821;SDS011;4950;46.042;14.472;2023-07-13T11:53:19;12.32;;;5.13;;
9821;SDS011;4950;46.042;14.472;2023-07-13T11:55:46;14.20;;;5.40;;
9821;SDS011;4950;46.042;14.472;2023-07-13T11:58:14;16.00;;;5.82;;
9821;SDS011;4950;46.042;14.472;2023-07-13T12:00:47;15.55;;;5.43;;
9821;SDS011;4950;46.042;14.472;2023-07-13T12:03:15;13.15;;;5.45;;
9821;SDS011;4950;46.042;14.472;2023-07-13T12:05:59;10.10;;;5.22;;
9821;SDS011;4950;46.042;14.472;2023-07-13T12:08:28;14.50;;;5.43;;
9821;SDS011;4950;46.042;14.472;2023-07-13T12:10:56;10.60;;;5.10;;
9821;SDS011;4950;46.042;14.472;2023-07-13T12:13:26;8.65;;;4.00;;
9821;SDS011;4950;46.042;14.472;2023-07-13T12:15:53;8.98;;;3.95;;
9821;SDS011;4950;46.042;14.472;2023-07-13T12:18:20;8.05;;;3.75;;
9821;SDS011;4950;46.042;14.472;2023-07-13T12:20:49;9.77;;;4.30;;
9821;SDS011;4950;46.042;14.472;2023-07-13T12:23:21;8.60;;;3.88;;
9821;SDS011;4950;46.042;14.472;2023-07-13T12:25:52;11.35;;;4.75;;
9821;SDS011;4950;46.042;14.472;2023-07-13T12:28:19;8.40;;;4.00;;
9821;SDS011;4950;46.042;14.472;2023-07-13T12:30:48;8.23;;;3.70;;
9821;SDS011;4950;46.042;14.472;2023-07-13T12:33:15;9.63;;;3.72;;
9821;SDS011;4950;46.042;14.472;2023-07-13T12:35:44;12.93;;;3.90;;
9821;SDS011;4950;46.042;14.472;2023-07-13T12:38:13;8.73;;;3.42;;
9821;SDS011;4950;46.042;14.472;2023-07-13T12:40:40;9.05;;;3.65;;
9821;SDS011;4950;46.042;14.472;2023-07-13T12:43:12;9.68;;;4.30;;
9821;SDS011;4950;46.042;14.472;2023-07-13T12:45:43;6.85;;;3.92;;
9821;SDS011;4950;46.042;14.472;2023-07-13T12:48:21;10.30;;;3.88;;
9821;SDS011;4950;46.042;14.472;2023-07-13T12:50:49;8.52;;;3.33;;
9821;SDS011;4950;46.042;14.472;2023-07-13T12:53:17;7.15;;;3.28;;
9821;SDS011;4950;46.042;14.472;2023-07-13T12:55:47;8.88;;;3.60;;
9821;SDS011;4950;46.042;14.472;2023-07-13T12:58:18;6.00;;;3.30;;
9821;SDS011;4950;46.042;14.472;2023-07-13T13:00:50;9.98;;;4.07;;
9821;SDS011;4950;46.042;14.472;2023-07-13T13:03:22;8.07;;;4.38;;
9821;SDS011;4950;46.042;14.472;2023-07-13T13:05:59;9.68;;;3.80;;
9821;SDS011;4950;46.042;14.472;2023-07-13T13:08:28;10.20;;;4.25;;
9821;SDS011;4950;46.042;14.472;2023-07-13T13:10:55;10.20;;;4.40;;
9821;SDS011;4950;46.042;14.472;2023-07-13T13:13:23;14.48;;;4.40;;
9821;SDS011;4950;46.042;14.472;2023-07-13T13:15:50;11.80;;;4.57;;
9821;SDS011;4950;46.042;14.472;2023-07-13T13:18:17;10.02;;;5.07;;
9821;SDS011;4950;46.042;14.472;2023-07-13T13:20:45;11.85;;;4.80;;
9821;SDS011;4950;46.042;14.472;2023-07-13T13:23:12;9.68;;;4.65;;
9821;SDS011;4950;46.042;14.472;2023-07-13T13:25:42;13.18;;;4.47;;
9821;SDS011;4950;46.042;14.472;2023-07-13T13:28:12;10.32;;;4.22;;
9821;SDS011;4950;46.042;14.472;2023-07-13T13:30:42;9.05;;;4.18;;
9821;SDS011;4950;46.042;14.472;2023-07-13T13:33:10;8.88;;;4.97;;
9821;SDS011;4950;46.042;14.472;2023-07-13T13:35:38;8.63;;;4.60;;
9821;SDS011;4950;46.042;14.472;2023-07-13T13:38:09;7.63;;;4.60;;
9821;SDS011;4950;46.042;14.472;2023-07-13T13:40:39;12.02;;;5.45;;
9821;SDS011;4950;46.042;14.472;2023-07-13T13:43:11;10.05;;;5.45;;
9821;SDS011;4950;46.042;14.472;2023-07-13T13:45:42;7.43;;;4.95;;
9821;SDS011;4950;46.042;14.472;2023-07-13T13:48:14;12.93;;;5.20;;
9821;SDS011;4950;46.042;14.472;2023-07-13T13:50:42;12.85;;;5.32;;
9821;SDS011;4950;46.042;14.472;2023-07-13T13:53:10;8.98;;;4.22;;
9821;SDS011;4950;46.042;14.472;2023-07-13T13:55:38;11.35;;;4.93;;
9821;SDS011;4950;46.042;14.472;2023-07-13T13:58:07;10.82;;;4.65;;
9821;SDS011;4950;46.042;14.472;2023-07-13T14:00:35;9.60;;;4.60;;
9821;SDS011;4950;46.042;14.472;2023-07-13T14:03:03;10.15;;;5.18;;
9821;SDS011;4950;46.042;14.472;2023-07-13T14:05:32;8.15;;;4.43;;
9821;SDS011;4950;46.042;14.472;2023-07-13T14:07:59;9.20;;;5.18;;
9821;SDS011;4950;46.042;14.472;2023-07-13T14:10:25;8.73;;;4.80;;
9821;SDS011;4950;46.042;14.472;2023-07-13T14:12:54;8.77;;;4.88;;
9821;SDS011;4950;46.042;14.472;2023-07-13T14:15:23;10.63;;;5.03;;
9821;SDS011;4950;46.042;14.472;2023-07-13T14:17:52;6.82;;;4.78;;
9821;SDS011;4950;46.042;14.472;2023-07-13T14:20:21;11.07;;;4.72;;
9821;SDS011;4950;46.042;14.472;2023-07-13T14:22:49;10.77;;;6.22;;
9821;SDS011;4950;46.042;14.472;2023-07-13T14:25:17;9.32;;;5.47;;
9821;SDS011;4950;46.042;14.472;2023-07-13T14:27:53;10.32;;;4.78;;
9821;SDS011;4950;46.042;14.472;2023-07-13T14:30:24;10.98;;;4.93;;
9821;SDS011;4950;46.042;14.472;2023-07-13T14:32:51;11.27;;;5.35;;
9821;SDS011;4950;46.042;14.472;2023-07-13T14:35:19;9.38;;;5.22;;
9821;SDS011;4950;46.042;14.472;2023-07-13T14:37:49;8.65;;;4.82;;
9821;SDS011;4950;46.042;14.472;2023-07-13T14:40:17;7.10;;;4.07;;
9821;SDS011;4950;46.042;14.472;2023-07-13T14:42:48;9.85;;;5.18;;
9821;SDS011;4950;46.042;14.472;2023-07-13T14:45:15;10.48;;;5.30;;
9821;SDS011;4950;46.042;14.472;2023-07-13T14:47:43;8.65;;;4.65;;
9821;SDS011;4950;46.042;14.472;2023-07-13T14:50:13;8.80;;;4.75;;
9821;SDS011;4950;46.042;14.472;2023-07-13T14:52:43;9.13;;;4.90;;
9821;SDS011;4950;46.042;14.472;2023-07-13T14:55:11;8.85;;;4.82;;
9821;SDS011;4950;46.042;14.472;2023-07-13T14:57:39;11.97;;;4.70;;
9821;SDS011;4950;46.042;14.472;2023-07-13T15:00:12;13.90;;;6.55;;
9821;SDS011;4950;46.042;14.472;2023-07-13T15:02:40;10.18;;;4.95;;
9821;SDS011;4950;46.042;14.472;2023-07-13T15:05:12;13.52;;;6.78;;
9821;SDS011;4950;46.042;14.472;2023-07-13T15:07:40;10.05;;;5.55;;
9821;SDS011;4950;46.042;14.472;2023-07-13T15:12:42;8.73;;;5.47;;
9821;SDS011;4950;46.042;14.472;2023-07-13T15:15:09;10.05;;;5.22;;
9821;SDS011;4950;46.042;14.472;2023-07-13T15:17:36;8.65;;;5.22;;
9821;SDS011;4950;46.042;14.472;2023-07-13T15:22:37;8.18;;;4.72;;
9821;SDS011;4950;46.042;14.472;2023-07-13T15:25:07;10.25;;;6.13;;
9821;SDS011;4950;46.042;14.472;2023-07-13T15:27:42;9.95;;;4.80;;
9821;SDS011;4950;46.042;14.472;2023-07-13T15:30:10;9.43;;;5.38;;
9821;SDS011;4950;46.042;14.472;2023-07-13T15:32:37;9.20;;;5.50;;